sensor_id;sensor_type;location;lat;lon;timestamp;P1;durP1;ratioP1;P2;durP2;ratioP2
13834;SDS011;6988;52.614;13.500;2023-05-10T00:02:13;6.47;;;5.00;;
13834;SDS011;6988;52.614;13.500;2023-05-10T00:07:05;8.13;;;5.83;;
13834;SDS011;6988;52.614;13.500;2023-05-10T00:11:57;6.20;;;5.60;;
13834;SDS011;6988;52.614;13.500;2023-05-10T00:16:50;8.77;;;5.67;;
13834;SDS011;6988;52.614;13.500;2023-05-10T00:21:42;8.23;;;5.70;;
13834;SDS011;6988;52.614;13.500;2023-05-10T00:33:07;9.70;;;6.47;;
13834;SDS011;6988;52.614;13.500;2023-05-10T00:37:59;7.03;;;6.13;;
13834;SDS011;6988;52.614;13.500;2023-05-10T00:42:51;9.23;;;6.10;;
13834;SDS011;6988;52.614;13.500;2023-05-10T00:47:43;10.50;;;5.97;;
13834;SDS011;6988;52.614;13.500;2023-05-10T00:52:36;7.70;;;6.43;;
13834;SDS011;6988;52.614;13.500;2023-05-10T00:57:28;7.10;;;6.00;;
13834;SDS011;6988;52.614;13.500;2023-05-10T01:02:20;7.67;;;6.20;;
13834;SDS011;6988;52.614;13.500;2023-05-10T01:07:12;8.83;;;5.53;;
13834;SDS011;6988;52.614;13.500;2023-05-10T01:12:05;10.27;;;6.90;;
13834;SDS011;6988;52.614;13.500;2023-05-10T01:16:58;7.87;;;5.73;;
13834;SDS011;6988;52.614;13.500;2023-05-10T01:21:53;10.87;;;6.27;;
13834;SDS011;6988;52.614;13.500;2023-05-10T01:27:02;7.93;;;6.17;;
13834;SDS011;6988;52.614;13.500;2023-05-10T01:32:21;8.97;;;6.07;;
13834;SDS011;6988;52.614;13.500;2023-05-10T01:37:25;13.53;;;6.17;;
13834;SDS011;6988;52.614;13.500;2023-05-10T01:42:31;10.30;;;6.10;;
13834;SDS011;6988;52.614;13.500;2023-05-10T01:47:37;7.93;;;5.87;;
13834;SDS011;6988;52.614;13.500;2023-05-10T01:52:36;7.63;;;5.73;;
13834;SDS011;6988;52.614;13.500;2023-05-10T01:57:34;8.23;;;5.40;;
13834;SDS011;6988;52.614;13.500;2023-05-10T02:02:30;9.27;;;5.83;;
13834;SDS011;6988;52.614;13.500;2023-05-10T02:07:28;7.80;;;5.37;;
13834;SDS011;6988;52.614;13.500;2023-05-10T02:12:22;7.73;;;5.43;;
13834;SDS011;6988;52.614;13.500;2023-05-10T02:17:17;7.13;;;5.43;;
13834;SDS011;6988;52.614;13.500;2023-05-10T02:22:14;7.57;;;5.20;;
13834;SDS011;6988;52.614;13.500;2023-05-10T02:27:10;10.37;;;5.67;;
13834;SDS011;6988;52.614;13.500;2023-05-10T02:32:06;9.30;;;5.77;;
13834;SDS011;6988;52.614;13.500;2023-05-10T02:37:02;8.27;;;5.40;;
13834;SDS011;6988;52.614;13.500;2023-05-10T02:41:57;6.80;;;5.27;;
13834;SDS011;6988;52.614;13.500;2023-05-10T02:46:51;8.33;;;5.50;;
13834;SDS011;6988;52.614;13.500;2023-05-10T02:51:47;8.13;;;5.40;;
13834;SDS011;6988;52.614;13.500;2023-05-10T02:56:50;6.90;;;5.43;;
13834;SDS011;6988;52.614;13.500;2023-05-10T03:01:52;8.40;;;5.67;;
13834;SDS011;6988;52.614;13.500;2023-05-10T03:06:45;9.37;;;5.63;;
13834;SDS011;6988;52.614;13.500;2023-05-10T03:11:43;9.60;;;5.27;;
13834;SDS011;6988;52.614;13.500;2023-05-10T03:16:46;9.10;;;5.30;;
13834;SDS011;6988;52.614;13.500;2023-05-10T03:21:52;8.43;;;5.50;;
13834;SDS011;6988;52.614;13.500;2023-05-10T03:26:51;5.37;;;4.60;;
13834;SDS011;6988;52.614;13.500;2023-05-10T03:31:48;7.97;;;5.33;;
13834;SDS011;6988;52.614;13.500;2023-05-10T03:36:41;8.13;;;5.10;;
13834;SDS011;6988;52.614;13.500;2023-05-10T03:41:33;7.67;;;4.97;;
13834;SDS011;6988;52.614;13.500;2023-05-10T03:46:25;7.93;;;4.77;;
13834;SDS011;6988;52.614;13.500;2023-05-10T03:51:21;7.07;;;4.67;;
13834;SDS011;6988;52.614;13.500;2023-05-10T04:02:52;8.23;;;5.10;;
13834;SDS011;6988;52.614;13.500;2023-05-10T04:07:46;6.20;;;4.70;;
13834;SDS011;6988;52.614;13.500;2023-05-10T04:13:35;7.33;;;4.47;;
13834;SDS011;6988;52.614;13.500;2023-05-10T04:18:29;7.30;;;5.00;;
13834;SDS011;6988;52.614;13.500;2023-05-10T04:24:22;6.67;;;4.70;;
13834;SDS011;6988;52.614;13.500;2023-05-10T04:35:47;5.93;;;4.40;;
13834;SDS011;6988;52.614;13.500;2023-05-10T04:40:39;6.77;;;4.53;;
13834;SDS011;6988;52.614;13.500;2023-05-10T04:45:30;6.67;;;4.40;;
13834;SDS011;6988;52.614;13.500;2023-05-10T04:50:22;6.60;;;4.30;;
13834;SDS011;6988;52.614;13.500;2023-05-10T04:55:15;7.10;;;4.10;;
13834;SDS011;6988;52.614;13.500;2023-05-10T05:00:08;5.77;;;3.73;;
13834;SDS011;6988;52.614;13.500;2023-05-10T05:05:01;4.50;;;3.80;;
13834;SDS011;6988;52.614;13.500;2023-05-10T05:09:53;7.43;;;4.00;;
13834;SDS011;6988;52.614;13.500;2023-05-10T05:14:46;5.43;;;4.00;;
13834;SDS011;6988;52.614;13.500;2023-05-10T05:19:38;4.73;;;3.57;;
13834;SDS011;6988;52.614;13.500;2023-05-10T05:24:34;3.93;;;3.10;;
13834;SDS011;6988;52.614;13.500;2023-05-10T05:29:28;6.10;;;3.63;;
13834;SDS011;6988;52.614;13.500;2023-05-10T05:34:21;5.43;;;3.20;;
13834;SDS011;6988;52.614;13.500;2023-05-10T05:39:13;5.80;;;3.87;;
13834;SDS011;6988;52.614;13.500;2023-05-10T05:44:05;6.83;;;3.60;;
13834;SDS011;6988;52.614;13.500;2023-05-10T05:48:56;5.77;;;3.30;;
13834;SDS011;6988;52.614;13.500;2023-05-10T05:53:49;4.30;;;3.20;;
13834;SDS011;6988;52.614;13.500;2023-05-10T05:58:41;4.77;;;3.03;;
13834;SDS011;6988;52.614;13.500;2023-05-10T06:03:33;5.60;;;3.13;;
13834;SDS011;6988;52.614;13.500;2023-05-10T06:08:25;5.37;;;3.10;;
13834;SDS011;6988;52.614;13.500;2023-05-10T06:13:18;6.93;;;2.90;;
13834;SDS011;6988;52.614;13.500;2023-05-10T06:18:10;3.77;;;2.67;;
13834;SDS011;6988;52.614;13.500;2023-05-10T06:23:02;3.87;;;3.03;;
13834;SDS011;6988;52.614;13.500;2023-05-10T06:27:53;3.83;;;2.70;;
13834;SDS011;6988;52.614;13.500;2023-05-10T06:32:49;4.10;;;2.80;;
13834;SDS011;6988;52.614;13.500;2023-05-10T06:57:41;4.60;;;2.50;;
13834;SDS011;6988;52.614;13.500;2023-05-10T07:02:33;5.97;;;2.60;;
13834;SDS011;6988;52.614;13.500;2023-05-10T07:07:25;5.97;;;2.50;;
13834;SDS011;6988;52.614;13.500;2023-05-10T07:12:17;4.87;;;2.23;;
13834;SDS011;6988;52.614;13.500;2023-05-10T07:17:11;4.57;;;2.23;;
13834;SDS011;6988;52.614;13.500;2023-05-10T07:22:02;6.17;;;2.87;;
13834;SDS011;6988;52.614;13.500;2023-05-10T07:26:54;7.67;;;2.70;;
13834;SDS011;6988;52.614;13.500;2023-05-10T07:31:46;2.80;;;2.40;;
13834;SDS011;6988;52.614;13.500;2023-05-10T07:36:39;5.20;;;2.13;;
13834;SDS011;6988;52.614;13.500;2023-05-10T07:41:31;4.70;;;2.17;;
13834;SDS011;6988;52.614;13.500;2023-05-10T07:46:23;3.33;;;2.33;;
13834;SDS011;6988;52.614;13.500;2023-05-10T07:51:15;3.60;;;2.20;;
13834;SDS011;6988;52.614;13.500;2023-05-10T07:56:21;4.00;;;2.20;;
13834;SDS011;6988;52.614;13.500;2023-05-10T08:07:48;3.77;;;2.40;;
13834;SDS011;6988;52.614;13.500;2023-05-10T08:12:42;3.23;;;2.43;;
13834;SDS011;6988;52.614;13.500;2023-05-10T08:17:34;3.43;;;2.40;;
13834;SDS011;6988;52.614;13.500;2023-05-10T08:22:26;4.80;;;2.37;;
13834;SDS011;6988;52.614;13.500;2023-05-10T08:27:18;3.43;;;2.37;;
13834;SDS011;6988;52.614;13.500;2023-05-10T08:32:11;4.73;;;2.23;;
13834;SDS011;6988;52.614;13.500;2023-05-10T08:43:34;4.67;;;2.53;;
13834;SDS011;6988;52.614;13.500;2023-05-10T08:48:30;3.67;;;2.20;;
13834;SDS011;6988;52.614;13.500;2023-05-10T08:53:25;3.67;;;2.40;;
13834;SDS011;6988;52.614;13.500;2023-05-10T08:58:20;4.83;;;2.30;;
13834;SDS011;6988;52.614;13.500;2023-05-10T09:03:12;4.30;;;2.60;;
13834;SDS011;6988;52.614;13.500;2023-05-10T09:08:06;3.67;;;2.40;;
13834;SDS011;6988;52.614;13.500;2023-05-10T09:13:00;5.63;;;2.30;;
13834;SDS011;6988;52.614;13.500;2023-05-10T09:17:54;4.73;;;2.37;;
13834;SDS011;6988;52.614;13.500;2023-05-10T09:22:47;2.67;;;2.20;;
13834;SDS011;6988;52.614;13.500;2023-05-10T09:27:41;4.83;;;2.17;;
13834;SDS011;6988;52.614;13.500;2023-05-10T09:32:37;5.33;;;2.40;;
13834;SDS011;6988;52.614;13.500;2023-05-10T09:37:30;2.73;;;2.10;;
13834;SDS011;6988;52.614;13.500;2023-05-10T09:42:22;5.33;;;2.50;;
13834;SDS011;6988;52.614;13.500;2023-05-10T09:47:18;4.90;;;2.40;;
13834;SDS011;6988;52.614;13.500;2023-05-10T09:52:09;6.97;;;2.60;;
13834;SDS011;6988;52.614;13.500;2023-05-10T09:57:01;4.10;;;2.20;;
13834;SDS011;6988;52.614;13.500;2023-05-10T10:01:55;3.93;;;2.37;;
13834;SDS011;6988;52.614;13.500;2023-05-10T10:06:59;4.63;;;2.57;;
13834;SDS011;6988;52.614;13.500;2023-05-10T10:11:53;4.60;;;2.50;;
13834;SDS011;6988;52.614;13.500;2023-05-10T10:16:46;4.77;;;2.80;;
13834;SDS011;6988;52.614;13.500;2023-05-10T10:21:40;4.00;;;2.57;;
13834;SDS011;6988;52.614;13.500;2023-05-10T10:26:33;4.43;;;2.40;;
13834;SDS011;6988;52.614;13.500;2023-05-10T10:31:32;4.83;;;2.70;;
13834;SDS011;6988;52.614;13.500;2023-05-10T10:36:32;4.10;;;2.40;;
13834;SDS011;6988;52.614;13.500;2023-05-10T10:41:31;3.15;;;2.22;;
13834;SDS011;6988;52.614;13.500;2023-05-10T10:46:26;4.80;;;2.63;;
13834;SDS011;6988;52.614;13.500;2023-05-10T10:51:18;2.97;;;2.10;;
13834;SDS011;6988;52.614;13.500;2023-05-10T10:56:10;6.83;;;2.33;;
13834;SDS011;6988;52.614;13.500;2023-05-10T11:01:13;5.57;;;2.70;;
13834;SDS011;6988;52.614;13.500;2023-05-10T11:06:07;5.28;;;2.22;;
13834;SDS011;6988;52.614;13.500;2023-05-10T11:11:03;2.70;;;2.17;;
13834;SDS011;6988;52.614;13.500;2023-05-10T11:16:09;6.93;;;2.75;;
13834;SDS011;6988;52.614;13.500;2023-05-10T11:21:16;4.22;;;2.38;;
13834;SDS011;6988;52.614;13.500;2023-05-10T11:26:08;4.88;;;2.30;;
13834;SDS011;6988;52.614;13.500;2023-05-10T11:31:00;5.43;;;2.30;;
13834;SDS011;6988;52.614;13.500;2023-05-10T11:35:54;3.55;;;2.35;;
13834;SDS011;6988;52.614;13.500;2023-05-10T11:40:45;3.35;;;2.40;;
13834;SDS011;6988;52.614;13.500;2023-05-10T11:45:38;2.80;;;2.20;;
13834;SDS011;6988;52.614;13.500;2023-05-10T11:50:32;6.75;;;2.53;;
13834;SDS011;6988;52.614;13.500;2023-05-10T11:55:26;4.18;;;2.00;;
13834;SDS011;6988;52.614;13.500;2023-05-10T12:00:20;3.08;;;2.00;;
13834;SDS011;6988;52.614;13.500;2023-05-10T12:05:12;3.80;;;1.98;;
13834;SDS011;6988;52.614;13.500;2023-05-10T12:10:06;3.20;;;1.90;;
13834;SDS011;6988;52.614;13.500;2023-05-10T12:15:01;4.97;;;2.35;;
13834;SDS011;6988;52.614;13.500;2023-05-10T12:19:58;6.40;;;2.63;;
13834;SDS011;6988;52.614;13.500;2023-05-10T12:25:03;4.55;;;2.50;;
13834;SDS011;6988;52.614;13.500;2023-05-10T12:29:58;7.80;;;2.30;;
13834;SDS011;6988;52.614;13.500;2023-05-10T12:34:52;5.10;;;2.05;;
13834;SDS011;6988;52.614;13.500;2023-05-10T12:39:44;7.18;;;2.50;;
13834;SDS011;6988;52.614;13.500;2023-05-10T12:44:36;7.22;;;2.72;;
13834;SDS011;6988;52.614;13.500;2023-05-10T12:49:28;7.18;;;2.20;;
13834;SDS011;6988;52.614;13.500;2023-05-10T12:54:22;5.43;;;2.08;;
13834;SDS011;6988;52.614;13.500;2023-05-10T12:59:14;4.47;;;2.13;;
13834;SDS011;6988;52.614;13.500;2023-05-10T13:04:06;4.93;;;2.38;;
13834;SDS011;6988;52.614;13.500;2023-05-10T13:08:58;3.30;;;2.10;;
13834;SDS011;6988;52.614;13.500;2023-05-10T13:13:51;2.15;;;1.70;;
13834;SDS011;6988;52.614;13.500;2023-05-10T13:18:43;4.25;;;1.90;;
13834;SDS011;6988;52.614;13.500;2023-05-10T13:23:35;5.32;;;2.28;;
13834;SDS011;6988;52.614;13.500;2023-05-10T13:28:26;4.20;;;1.80;;
13834;SDS011;6988;52.614;13.500;2023-05-10T13:33:20;5.38;;;2.05;;
13834;SDS011;6988;52.614;13.500;2023-05-10T13:38:12;3.03;;;1.70;;
13834;SDS011;6988;52.614;13.500;2023-05-10T13:43:04;5.53;;;1.65;;
13834;SDS011;6988;52.614;13.500;2023-05-10T13:47:56;4.63;;;1.90;;
13834;SDS011;6988;52.614;13.500;2023-05-10T13:52:50;2.88;;;1.75;;
13834;SDS011;6988;52.614;13.500;2023-05-10T14:02:59;2.42;;;1.95;;
13834;SDS011;6988;52.614;13.500;2023-05-10T14:07:52;2.33;;;1.30;;
13834;SDS011;6988;52.614;13.500;2023-05-10T14:12:44;2.63;;;1.75;;
13834;SDS011;6988;52.614;13.500;2023-05-10T14:17:36;3.08;;;1.60;;
13834;SDS011;6988;52.614;13.500;2023-05-10T14:22:28;4.05;;;1.60;;
13834;SDS011;6988;52.614;13.500;2023-05-10T14:33:53;3.42;;;1.65;;
13834;SDS011;6988;52.614;13.500;2023-05-10T14:38:45;2.42;;;1.77;;
13834;SDS011;6988;52.614;13.500;2023-05-10T14:43:37;2.58;;;1.70;;
13834;SDS011;6988;52.614;13.500;2023-05-10T14:48:28;2.17;;;1.50;;
13834;SDS011;6988;52.614;13.500;2023-05-10T14:53:22;1.80;;;1.65;;
13834;SDS011;6988;52.614;13.500;2023-05-10T14:58:13;2.90;;;1.77;;
13834;SDS011;6988;52.614;13.500;2023-05-10T15:03:06;4.90;;;1.73;;
13834;SDS011;6988;52.614;13.500;2023-05-10T15:07:58;3.03;;;1.83;;
13834;SDS011;6988;52.614;13.500;2023-05-10T15:12:55;3.15;;;1.55;;
13834;SDS011;6988;52.614;13.500;2023-05-10T15:17:49;3.10;;;1.80;;
13834;SDS011;6988;52.614;13.500;2023-05-10T15:23:38;3.85;;;1.90;;
13834;SDS011;6988;52.614;13.500;2023-05-10T15:28:31;3.35;;;1.75;;
13834;SDS011;6988;52.614;13.500;2023-05-10T15:33:23;2.45;;;1.67;;
13834;SDS011;6988;52.614;13.500;2023-05-10T15:38:15;3.22;;;2.00;;
13834;SDS011;6988;52.614;13.500;2023-05-10T15:43:07;2.63;;;1.60;;
13834;SDS011;6988;52.614;13.500;2023-05-10T15:54:27;3.50;;;1.77;;
13834;SDS011;6988;52.614;13.500;2023-05-10T15:59:19;2.53;;;1.70;;
13834;SDS011;6988;52.614;13.500;2023-05-10T16:04:11;2.22;;;1.70;;
13834;SDS011;6988;52.614;13.500;2023-05-10T16:09:03;3.30;;;1.95;;
13834;SDS011;6988;52.614;13.500;2023-05-10T16:13:56;2.65;;;2.00;;
13834;SDS011;6988;52.614;13.500;2023-05-10T16:18:48;4.18;;;2.00;;
13834;SDS011;6988;52.614;13.500;2023-05-10T16:23:40;2.40;;;1.80;;
13834;SDS011;6988;52.614;13.500;2023-05-10T16:35:06;2.63;;;1.90;;
13834;SDS011;6988;52.614;13.500;2023-05-10T16:39:59;4.13;;;2.05;;
13834;SDS011;6988;52.614;13.500;2023-05-10T16:44:52;3.20;;;2.00;;
13834;SDS011;6988;52.614;13.500;2023-05-10T16:49:44;3.60;;;1.85;;
13834;SDS011;6988;52.614;13.500;2023-05-10T16:54:37;1.92;;;1.73;;
13834;SDS011;6988;52.614;13.500;2023-05-10T16:59:29;2.22;;;2.03;;
13834;SDS011;6988;52.614;13.500;2023-05-10T17:04:21;3.75;;;2.17;;
13834;SDS011;6988;52.614;13.500;2023-05-10T17:09:13;4.78;;;2.10;;
13834;SDS011;6988;52.614;13.500;2023-05-10T17:14:07;2.88;;;2.10;;
13834;SDS011;6988;52.614;13.500;2023-05-10T17:18:59;4.75;;;3.42;;
13834;SDS011;6988;52.614;13.500;2023-05-10T17:23:50;6.47;;;4.03;;
13834;SDS011;6988;52.614;13.500;2023-05-10T17:28:42;7.25;;;3.97;;
13834;SDS011;6988;52.614;13.500;2023-05-10T17:33:36;4.90;;;4.40;;
13834;SDS011;6988;52.614;13.500;2023-05-10T17:38:28;4.97;;;3.90;;
13834;SDS011;6988;52.614;13.500;2023-05-10T17:43:20;7.53;;;4.03;;
13834;SDS011;6988;52.614;13.500;2023-05-10T17:48:12;6.67;;;3.90;;
13834;SDS011;6988;52.614;13.500;2023-05-10T17:53:05;5.90;;;4.50;;
13834;SDS011;6988;52.614;13.500;2023-05-10T17:57:57;7.37;;;4.87;;
13834;SDS011;6988;52.614;13.500;2023-05-10T18:02:49;6.28;;;5.00;;
13834;SDS011;6988;52.614;13.500;2023-05-10T18:07:41;10.00;;;4.97;;
13834;SDS011;6988;52.614;13.500;2023-05-10T18:12:34;5.80;;;4.37;;
13834;SDS011;6988;52.614;13.500;2023-05-10T18:17:26;9.07;;;4.87;;
13834;SDS011;6988;52.614;13.500;2023-05-10T18:22:18;6.50;;;4.43;;
13834;SDS011;6988;52.614;13.500;2023-05-10T18:27:09;4.97;;;4.47;;
13834;SDS011;6988;52.614;13.500;2023-05-10T18:32:03;5.10;;;3.97;;
13834;SDS011;6988;52.614;13.500;2023-05-10T18:36:55;7.00;;;4.50;;
13834;SDS011;6988;52.614;13.500;2023-05-10T18:41:48;6.40;;;5.00;;
13834;SDS011;6988;52.614;13.500;2023-05-10T18:46:40;5.30;;;4.33;;
13834;SDS011;6988;52.614;13.500;2023-05-10T18:57:46;6.00;;;4.80;;
13834;SDS011;6988;52.614;13.500;2023-05-10T19:02:38;5.50;;;4.43;;
13834;SDS011;6988;52.614;13.500;2023-05-10T19:07:30;6.17;;;4.87;;
13834;SDS011;6988;52.614;13.500;2023-05-10T19:12:22;8.00;;;4.83;;
13834;SDS011;6988;52.614;13.500;2023-05-10T19:17:16;7.23;;;4.87;;
13834;SDS011;6988;52.614;13.500;2023-05-10T19:27:15;6.33;;;4.87;;
13834;SDS011;6988;52.614;13.500;2023-05-10T19:32:07;8.23;;;5.43;;
13834;SDS011;6988;52.614;13.500;2023-05-10T19:37:01;7.17;;;5.23;;
13834;SDS011;6988;52.614;13.500;2023-05-10T19:41:53;5.63;;;4.63;;
13834;SDS011;6988;52.614;13.500;2023-05-10T19:46:45;5.43;;;4.87;;
13834;SDS011;6988;52.614;13.500;2023-05-10T19:51:37;7.10;;;4.87;;
13834;SDS011;6988;52.614;13.500;2023-05-10T19:56:30;6.53;;;5.37;;
13834;SDS011;6988;52.614;13.500;2023-05-10T20:07:54;6.50;;;5.40;;
13834;SDS011;6988;52.614;13.500;2023-05-10T20:12:48;7.10;;;6.30;;
13834;SDS011;6988;52.614;13.500;2023-05-10T20:17:41;6.20;;;5.60;;
13834;SDS011;6988;52.614;13.500;2023-05-10T20:22:33;6.90;;;5.33;;
13834;SDS011;6988;52.614;13.500;2023-05-10T20:27:25;6.33;;;5.07;;
13834;SDS011;6988;52.614;13.500;2023-05-10T20:32:19;7.87;;;5.63;;
13834;SDS011;6988;52.614;13.500;2023-05-10T20:37:11;6.47;;;5.33;;
13834;SDS011;6988;52.614;13.500;2023-05-10T20:47:02;5.73;;;5.13;;
13834;SDS011;6988;52.614;13.500;2023-05-10T20:51:56;5.90;;;5.40;;
13834;SDS011;6988;52.614;13.500;2023-05-10T20:56:49;6.00;;;5.40;;
13834;SDS011;6988;52.614;13.500;2023-05-10T21:01:41;6.63;;;5.97;;
13834;SDS011;6988;52.614;13.500;2023-05-10T21:06:32;6.57;;;5.83;;
13834;SDS011;6988;52.614;13.500;2023-05-10T21:11:26;6.20;;;5.60;;
13834;SDS011;6988;52.614;13.500;2023-05-10T21:22:49;6.47;;;5.33;;
13834;SDS011;6988;52.614;13.500;2023-05-10T21:27:42;7.67;;;6.10;;
13834;SDS011;6988;52.614;13.500;2023-05-10T21:32:34;7.50;;;5.90;;
13834;SDS011;6988;52.614;13.500;2023-05-10T21:37:26;6.33;;;5.47;;
13834;SDS011;6988;52.614;13.500;2023-05-10T21:42:18;6.87;;;5.63;;
13834;SDS011;6988;52.614;13.500;2023-05-10T22:05:01;6.77;;;5.80;;
13834;SDS011;6988;52.614;13.500;2023-05-10T22:09:54;6.60;;;5.87;;
13834;SDS011;6988;52.614;13.500;2023-05-10T22:14:46;10.63;;;6.40;;
13834;SDS011;6988;52.614;13.500;2023-05-10T22:19:38;7.00;;;5.87;;
13834;SDS011;6988;52.614;13.500;2023-05-10T22:24:31;8.80;;;6.97;;
13834;SDS011;6988;52.614;13.500;2023-05-10T22:29:23;10.50;;;7.50;;
13834;SDS011;6988;52.614;13.500;2023-05-10T22:34:15;7.93;;;6.60;;
13834;SDS011;6988;52.614;13.500;2023-05-10T22:39:07;9.60;;;7.17;;
13834;SDS011;6988;52.614;13.500;2023-05-10T22:44:01;9.40;;;6.63;;
13834;SDS011;6988;52.614;13.500;2023-05-10T22:48:54;8.47;;;7.00;;
13834;SDS011;6988;52.614;13.500;2023-05-10T22:53:46;8.47;;;6.97;;
13834;SDS011;6988;52.614;13.500;2023-05-10T22:58:38;4.80;;;4.40;;
13834;SDS011;6988;52.614;13.500;2023-05-10T23:03:31;4.90;;;4.47;;
13834;SDS011;6988;52.614;13.500;2023-05-10T23:08:23;4.53;;;3.57;;
13834;SDS011;6988;52.614;13.500;2023-05-10T23:13:15;6.63;;;4.87;;
13834;SDS011;6988;52.614;13.500;2023-05-10T23:18:08;6.00;;;5.33;;
13834;SDS011;6988;52.614;13.500;2023-05-10T23:23:03;6.43;;;5.70;;
13834;SDS011;6988;52.614;13.500;2023-05-10T23:27:56;10.57;;;8.97;;
13834;SDS011;6988;52.614;13.500;2023-05-10T23:32:48;5.27;;;4.20;;
13834;SDS011;6988;52.614;13.500;2023-05-10T23:37:40;10.77;;;8.60;;
13834;SDS011;6988;52.614;13.500;2023-05-10T23:42:33;12.97;;;9.30;;
13834;SDS011;6988;52.614;13.500;2023-05-10T23:47:25;9.43;;;8.53;;
13834;SDS011;6988;52.614;13.500;2023-05-10T23:52:17;9.70;;;8.80;;
13834;SDS011;6988;52.614;13.500;2023-05-10T23:57:11;10.47;;;8.37;;
